Time;durP1;ratioP1;P1;durP2;ratioP2;P2;SDS_P1;SDS_P2;PMS_P1;PMS_P2;Temp;Humidity;BMP_temperature;BMP_pressure;BME280_temperature;BME280_humidity;BME280_pressure;Samples;Min_cycle;Max_cycle;Signal;HPM_P1;HPM_P2
2022/09/07 00:01:20;;;;;;;11.57;8.63;;;;;;;16.68;100.00;101265.69;5046105;28;20040;-75
2022/09/07 00:03:45;;;;;;;9.50;7.35;;;;;;;16.53;100.00;101259.28;5048118;28;20400;-75
2022/09/07 00:06:12;;;;;;;10.55;7.95;;;;;;;16.45;100.00;101256.09;5050879;28;20373;-75
2022/09/07 00:08:39;;;;;;;10.40;7.43;;;;;;;16.41;100.00;101250.09;5045132;28;20024;-75
2022/09/07 00:11:10;;;;;;;7.90;6.40;;;;;;;16.23;100.00;101249.09;5046806;28;20033;-75
2022/09/07 00:13:37;;;;;;;8.93;6.38;;;;;;;16.17;100.00;101243.22;5046034;28;20025;-74
2022/09/07 00:16:09;;;;;;;9.48;6.30;;;;;;;16.05;100.00;101240.16;5045528;28;20029;-74
2022/09/07 00:18:35;;;;;;;8.52;5.93;;;;;;;15.89;100.00;101236.41;5050993;28;20021;-74
2022/09/07 00:21:03;;;;;;;8.25;6.13;;;;;;;15.83;100.00;101232.28;5053063;28;20536;-74
2022/09/07 00:23:29;;;;;;;10.07;6.45;;;;;;;15.91;100.00;101245.13;5050383;28;20094;-74
2022/09/07 00:26:00;;;;;;;9.60;6.25;;;;;;;15.93;100.00;101237.19;5051252;28;20033;-74
2022/09/07 00:28:25;;;;;;;10.43;6.78;;;;;;;15.84;100.00;101225.25;5050175;28;20123;-74
2022/09/07 00:30:51;;;;;;;9.02;6.20;;;;;;;15.75;100.00;101238.75;5054021;28;20120;-75
2022/09/07 00:33:16;;;;;;;11.50;6.90;;;;;;;15.80;100.00;101239.44;5041169;28;20026;-74
2022/09/07 00:35:42;;;;;;;8.98;7.03;;;;;;;15.77;100.00;101242.19;5046521;28;20056;-74
2022/09/07 00:38:07;;;;;;;12.75;7.40;;;;;;;15.66;100.00;101230.31;5042550;28;20404;-74
2022/09/07 00:40:33;;;;;;;8.63;6.90;;;;;;;15.72;100.00;101223.94;5042784;28;20026;-74
2022/09/07 00:42:58;;;;;;;9.80;6.90;;;;;;;15.68;100.00;101217.94;5049653;28;20048;-75
2022/09/07 00:45:24;;;;;;;9.63;6.85;;;;;;;15.60;100.00;101208.63;5050814;28;20037;-74
2022/09/07 00:48:05;;;;;;;12.13;7.63;;;;;;;15.56;100.00;101192.09;5050086;28;20071;-74
2022/09/07 00:50:35;;;;;;;10.25;7.28;;;;;;;15.54;100.00;101188.69;5041446;28;20025;-74
2022/09/07 00:53:09;;;;;;;12.63;7.25;;;;;;;15.50;100.00;101184.47;5046025;28;20021;-74
2022/09/07 00:55:36;;;;;;;9.55;6.72;;;;;;;15.41;100.00;101185.69;5049347;28;20025;-74
2022/09/07 00:58:02;;;;;;;10.48;7.43;;;;;;;15.52;100.00;101174.75;5050177;28;20082;-74
2022/09/07 01:00:28;;;;;;;8.82;7.45;;;;;;;15.47;100.00;101179.34;5043753;28;20107;-74
2022/09/07 01:02:56;;;;;;;9.98;7.32;;;;;;;15.45;100.00;101178.53;5048642;28;20032;-74
2022/09/07 01:05:28;;;;;;;10.25;7.00;;;;;;;15.41;100.00;101187.47;5048820;28;20396;-74
2022/09/07 01:07:55;;;;;;;9.45;7.50;;;;;;;15.45;100.00;101189.03;5044056;28;20021;-74
2022/09/07 01:10:24;;;;;;;12.63;7.43;;;;;;;15.47;100.00;101192.47;5050533;28;20025;-74
2022/09/07 01:12:49;;;;;;;9.38;7.38;;;;;;;15.41;100.00;101185.69;5038855;28;20127;-74
2022/09/07 01:15:14;;;;;;;12.15;7.68;;;;;;;15.44;100.00;101180.31;5047208;28;20089;-74
2022/09/07 01:18:03;;;;;;;10.82;7.32;;;;;;;15.38;100.00;101187.56;5051773;28;20388;-74
2022/09/07 01:20:49;;;;;;;10.80;7.47;;;;;;;15.33;100.00;101194.75;5051204;28;20104;-74
2022/09/07 01:23:48;;;;;;;9.57;6.65;;;;;;;15.29;100.00;101201.03;5049874;28;20072;-74
2022/09/07 01:26:28;;;;;;;9.05;6.82;;;;;;;15.31;100.00;101196.59;5038904;28;20586;-74
2022/09/07 01:29:04;;;;;;;14.07;7.38;;;;;;;15.33;100.00;101187.72;5037884;28;20022;-74
2022/09/07 01:31:45;;;;;;;12.43;7.72;;;;;;;15.45;100.00;101194.28;5050790;28;20033;-74
2022/09/07 01:34:22;;;;;;;10.45;7.32;;;;;;;15.45;100.00;101195.16;5043403;28;20092;-74
2022/09/07 01:37:08;;;;;;;9.52;7.13;;;;;;;15.51;100.00;101204.56;5043417;28;20037;-74
2022/09/07 01:39:42;;;;;;;10.95;6.72;;;;;;;15.46;100.00;101199.47;5049988;28;20081;-74
2022/09/07 01:42:12;;;;;;;9.95;6.78;;;;;;;15.39;100.00;101199.78;5049664;28;20040;-74
2022/09/07 01:44:56;;;;;;;8.38;6.88;;;;;;;15.41;100.00;101198.81;5048212;28;20033;-74
2022/09/07 01:47:31;;;;;;;10.18;7.38;;;;;;;15.39;100.00;101199.78;5048867;28;20028;-74
2022/09/07 01:50:16;;;;;;;8.57;6.82;;;;;;;15.41;100.00;101196.19;5048720;28;20449;-74
2022/09/07 01:53:03;;;;;;;8.30;6.25;;;;;;;15.35;100.00;101187.69;5050382;28;20108;-74
2022/09/07 01:55:35;;;;;;;8.50;6.43;;;;;;;15.26;100.00;101198.53;5049665;28;20112;-74
2022/09/07 01:58:12;;;;;;;10.63;6.50;;;;;;;15.18;100.00;101209.31;5048730;28;20119;-74
2022/09/07 02:00:41;;;;;;;8.55;6.32;;;;;;;15.19;100.00;101204.00;5038120;28;20033;-74
2022/09/07 02:03:14;;;;;;;6.93;6.20;;;;;;;15.09;100.00;101200.00;5036067;28;20083;-74
2022/09/07 02:05:57;;;;;;;11.50;7.00;;;;;;;15.08;100.00;101200.94;5050025;28;20037;-74
2022/09/07 02:08:46;;;;;;;9.73;6.93;;;;;;;15.07;100.00;101199.19;5048497;28;20115;-74
2022/09/07 02:11:27;;;;;;;8.02;6.85;;;;;;;15.07;100.00;101196.56;5039399;28;20108;-74
2022/09/07 02:13:58;;;;;;;11.10;6.40;;;;;;;15.01;100.00;101193.31;5036744;28;20064;-74
2022/09/07 02:16:27;;;;;;;8.40;6.68;;;;;;;14.91;100.00;101196.28;5038233;28;20069;-74
2022/09/07 02:19:00;;;;;;;8.32;6.28;;;;;;;14.88;100.00;101198.19;5040315;28;20025;-75
2022/09/07 02:21:37;;;;;;;9.65;6.25;;;;;;;14.88;100.00;101200.81;5050071;28;20060;-74
2022/09/07 02:24:08;;;;;;;9.88;6.72;;;;;;;14.93;100.00;101204.09;5038943;28;20074;-74
2022/09/07 02:26:37;;;;;;;9.55;7.18;;;;;;;14.86;100.00;101200.84;5043792;28;20443;-74
2022/09/07 02:29:03;;;;;;;10.45;6.80;;;;;;;14.84;100.00;101200.03;5049247;28;20036;-74
2022/09/07 02:31:28;;;;;;;10.43;6.32;;;;;;;14.85;100.00;101203.53;5046936;28;20107;-75
2022/09/07 02:33:54;;;;;;;9.25;6.93;;;;;;;14.83;100.00;101195.69;5045235;28;20029;-74
2022/09/07 02:36:23;;;;;;;9.65;7.15;;;;;;;14.86;100.00;101197.34;5040735;28;20476;-74
2022/09/07 02:38:48;;;;;;;11.23;7.13;;;;;;;14.87;100.00;101199.06;5048410;28;20040;-74
2022/09/07 02:41:35;;;;;;;11.23;7.50;;;;;;;14.85;100.00;101195.66;5050946;28;20389;-74
2022/09/07 02:44:04;;;;;;;9.68;7.18;;;;;;;14.84;100.00;101202.66;5039458;28;20029;-74
2022/09/07 02:46:43;;;;;;;9.23;7.55;;;;;;;14.80;100.00;101200.19;5047743;28;20029;-74
2022/09/07 02:49:24;;;;;;;11.82;7.85;;;;;;;14.84;100.00;101194.78;5047746;28;20075;-74
2022/09/07 02:52:18;;;;;;;11.82;7.47;;;;;;;14.81;100.00;101196.66;5051140;28;20025;-74
2022/09/07 02:54:55;;;;;;;;;;;;;;;14.79;100.00;101201.97;5049111;28;20033;-74
2022/09/07 02:57:58;;;;;;;8.20;6.82;;;;;;;14.73;100.00;101205.66;5035940;28;19928;-74
2022/09/07 03:00:26;;;;;;;10.05;8.15;;;;;;;14.80;100.00;101198.44;5045809;28;20479;-74
2022/09/07 03:03:08;;;;;;;9.32;7.85;;;;;;;14.81;100.00;101204.53;5044525;28;20531;-74
2022/09/07 03:06:01;;;;;;;10.40;8.25;;;;;;;14.81;100.00;101202.75;5046224;28;20044;-74
2022/09/07 03:08:49;;;;;;;12.68;8.80;;;;;;;14.92;100.00;101205.03;5038119;28;20086;-74
2022/09/07 03:11:15;;;;;;;12.63;9.23;;;;;;;15.04;100.00;101201.06;5049952;28;20160;-74
2022/09/07 03:13:41;;;;;;;14.98;9.90;;;;;;;15.10;100.00;101201.72;5042450;28;20030;-74
2022/09/07 03:16:14;;;;;;;10.13;8.60;;;;;;;15.13;100.00;101201.59;5041745;28;20037;-74
2022/09/07 03:18:41;;;;;;;10.48;8.73;;;;;;;15.20;100.00;101187.34;5048729;28;20025;-74
2022/09/07 03:21:07;;;;;;;10.40;8.85;;;;;;;15.28;100.00;101189.69;5048043;28;20037;-74
2022/09/07 03:23:32;;;;;;;11.98;8.55;;;;;;;15.23;100.00;101175.84;5036331;28;20021;-74
2022/09/07 03:25:57;;;;;;;10.65;8.18;;;;;;;15.18;100.00;101175.19;5036905;28;20430;-74
2022/09/07 03:28:22;;;;;;;10.50;7.85;;;;;;;15.15;100.00;101184.03;5038901;28;20021;-74
2022/09/07 03:30:48;;;;;;;9.48;8.20;;;;;;;15.21;100.00;101196.94;5051156;28;20069;-74
2022/09/07 03:33:17;;;;;;;13.20;8.68;;;;;;;15.32;100.00;101200.94;5053931;28;20448;-74
2022/09/07 03:35:44;;;;;;;11.27;8.38;;;;;;;15.48;100.00;101183.66;5051729;28;20021;-74
2022/09/07 03:38:09;;;;;;;11.80;8.73;;;;;;;15.50;100.00;101180.97;5053815;28;20380;-74
2022/09/07 03:40:34;;;;;;;9.90;8.48;;;;;;;15.53;100.00;101184.38;5047177;28;20040;-74
2022/09/07 03:42:59;;;;;;;10.82;8.95;;;;;;;15.52;100.00;101187.88;5050431;28;20110;-74
2022/09/07 03:45:25;;;;;;;10.93;8.43;;;;;;;15.54;100.00;101193.09;5041110;28;20032;-74
2022/09/07 03:47:50;;;;;;;8.85;7.90;;;;;;;15.58;100.00;101197.31;5051403;28;20029;-74
2022/09/07 03:50:16;;;;;;;12.00;8.90;;;;;;;15.62;100.00;101189.25;5051550;28;20106;-74
2022/09/07 03:52:41;;;;;;;10.90;8.82;;;;;;;15.63;100.00;101188.34;5052332;28;20040;-74
2022/09/07 03:55:07;;;;;;;12.00;8.35;;;;;;;15.59;100.00;101184.09;5050191;28;20032;-74
2022/09/07 03:57:32;;;;;;;13.00;8.20;;;;;;;15.54;100.00;101187.84;5052057;28;20107;-74
2022/09/07 03:59:58;;;;;;;13.75;8.70;;;;;;;15.54;100.00;101178.19;5042311;28;20527;-74
2022/09/07 04:02:23;;;;;;;12.90;8.38;;;;;;;15.52;100.00;101174.75;5050502;28;20021;-74
2022/09/07 04:04:48;;;;;;;9.98;8.27;;;;;;;15.48;100.00;101162.66;5045441;28;20385;-74
2022/09/07 04:07:14;;;;;;;11.40;8.82;;;;;;;15.46;100.00;101156.59;5042358;28;20026;-74
2022/09/07 04:09:40;;;;;;;11.43;8.48;;;;;;;15.42;100.00;101155.00;5051727;28;20024;-74
2022/09/07 04:12:05;;;;;;;10.52;8.55;;;;;;;15.39;100.00;101153.34;5051921;28;20079;-74
2022/09/07 04:14:30;;;;;;;11.18;9.00;;;;;;;15.45;100.00;101139.97;5041125;28;20036;-74
2022/09/07 04:16:56;;;;;;;12.75;9.02;;;;;;;15.47;100.00;101139.94;5051150;28;20112;-74
2022/09/07 04:19:21;;;;;;;10.80;9.05;;;;;;;15.46;100.00;101133.78;5048723;28;20068;-74
2022/09/07 04:21:47;;;;;;;12.75;8.43;;;;;;;15.44;100.00;101137.41;5047380;28;20022;-74
2022/09/07 04:24:14;;;;;;;11.38;8.13;;;;;;;15.38;100.00;101133.25;5049892;28;20043;-74
2022/09/07 04:26:39;;;;;;;13.15;8.70;;;;;;;15.37;100.00;101147.31;5052019;28;20029;-74
2022/09/07 04:29:05;;;;;;;9.80;8.77;;;;;;;15.33;100.00;101155.34;5047166;28;20470;-74
2022/09/07 04:31:33;;;;;;;9.70;8.23;;;;;;;15.27;100.00;101163.47;5044676;28;20120;-74
2022/09/07 04:33:58;;;;;;;11.90;8.88;;;;;;;15.20;100.00;101161.09;5051810;28;20020;-74
2022/09/07 04:36:26;;;;;;;13.48;8.93;;;;;;;15.16;100.00;101158.63;5049019;28;20378;-74
2022/09/07 04:38:59;;;;;;;11.57;8.63;;;;;;;15.28;100.00;101165.19;5035768;28;20031;-74
2022/09/07 04:41:26;;;;;;;15.70;9.80;;;;;;;15.39;100.00;101165.63;5049654;28;20020;-75
2022/09/07 04:43:54;;;;;;;10.75;9.27;;;;;;;15.42;100.00;101163.72;5052512;28;20082;-74
2022/09/07 04:46:22;;;;;;;10.95;8.98;;;;;;;15.40;100.00;101170.84;5045443;28;20631;-74
2022/09/07 04:48:50;;;;;;;12.50;8.70;;;;;;;15.42;100.00;101166.38;5042368;28;20021;-74
2022/09/07 04:51:16;;;;;;;12.48;9.05;;;;;;;15.45;100.00;101165.41;5051331;28;20486;-74
2022/09/07 04:53:41;;;;;;;12.50;9.30;;;;;;;15.39;100.00;101160.38;5051338;28;20448;-74
2022/09/07 04:56:07;;;;;;;12.05;8.55;;;;;;;15.39;100.00;101163.00;5051826;28;20115;-74
2022/09/07 04:58:32;;;;;;;12.68;9.27;;;;;;;15.41;100.00;101166.44;5039102;28;20492;-74
2022/09/07 05:01:02;;;;;;;13.50;9.85;;;;;;;15.42;100.00;101166.38;5039637;28;20091;-74
2022/09/07 05:03:29;;;;;;;11.23;9.77;;;;;;;15.46;100.00;101159.22;5045733;28;20017;-74
2022/09/07 05:05:55;;;;;;;11.88;9.50;;;;;;;15.51;100.00;101152.03;5047425;28;20037;-74
2022/09/07 05:08:20;;;;;;;12.75;9.80;;;;;;;15.48;100.00;101146.03;5040942;28;20029;-74
2022/09/07 05:10:56;;;;;;;11.45;10.05;;;;;;;15.41;100.00;101142.78;5049249;28;20079;-74
2022/09/07 05:13:21;;;;;;;11.43;9.85;;;;;;;15.35;100.00;101145.66;5049811;28;20029;-74
2022/09/07 05:15:47;;;;;;;12.55;10.10;;;;;;;15.26;100.00;101138.13;5042632;28;20033;-74
2022/09/07 05:18:15;;;;;;;12.07;9.82;;;;;;;15.17;100.00;101142.81;5049871;28;20504;-74
2022/09/07 05:20:40;;;;;;;14.85;10.30;;;;;;;15.14;100.00;101142.06;5040992;28;20398;-74
2022/09/07 05:23:06;;;;;;;12.45;10.07;;;;;;;15.13;100.00;101156.09;5041905;28;20025;-74
2022/09/07 05:25:32;;;;;;;15.82;10.55;;;;;;;15.09;100.00;101151.88;5051190;28;20028;-74
2022/09/07 05:27:57;;;;;;;13.98;10.82;;;;;;;15.04;100.00;101159.06;5050330;28;20036;-74
2022/09/07 05:30:22;;;;;;;12.30;10.65;;;;;;;14.99;100.00;101161.88;5051442;28;20025;-74
2022/09/07 05:32:48;;;;;;;15.63;10.95;;;;;;;15.01;100.00;101167.94;5047449;28;20103;-74
2022/09/07 05:35:13;;;;;;;14.93;11.50;;;;;;;15.01;100.00;101157.44;5047305;28;20025;-74
2022/09/07 05:37:39;;;;;;;19.67;11.85;;;;;;;14.99;100.00;101164.50;5040069;28;20086;-74
2022/09/07 05:40:05;;;;;;;15.63;11.85;;;;;;;14.99;100.00;101164.50;5051331;28;20396;-74
2022/09/07 05:42:30;;;;;;;16.33;12.50;;;;;;;15.06;100.00;101171.22;5048233;28;20182;-74
2022/09/07 05:44:56;;;;;;;18.63;13.10;;;;;;;15.08;100.00;101153.66;5048329;28;20045;-74
2022/09/07 05:47:21;;;;;;;16.00;12.70;;;;;;;15.13;100.00;101161.34;5039625;28;20028;-74
2022/09/07 05:49:46;;;;;;;15.10;12.45;;;;;;;15.23;100.00;101162.72;5048953;28;20540;-74
2022/09/07 05:52:12;;;;;;;14.88;13.05;;;;;;;15.23;100.00;101162.72;5047093;28;20572;-74
2022/09/07 05:54:37;;;;;;;15.40;12.85;;;;;;;15.27;100.00;101163.47;5040501;28;20444;-74
2022/09/07 05:57:03;;;;;;;19.10;13.43;;;;;;;15.29;100.00;101169.53;5049599;28;20036;-74
2022/09/07 05:59:28;;;;;;;17.25;13.60;;;;;;;15.28;100.00;101181.81;5047882;28;20435;-74
2022/09/07 06:01:53;;;;;;;20.10;13.88;;;;;;;15.28;100.00;101183.59;5048456;28;20033;-74
2022/09/07 06:04:18;;;;;;;26.25;14.70;;;;;;;15.29;100.00;101183.50;5048008;28;20503;-74
2022/09/07 06:06:44;;;;;;;23.05;16.10;;;;;;;15.26;100.00;101180.13;5044576;28;20114;-74
2022/09/07 06:09:11;;;;;;;23.02;14.77;;;;;;;15.29;100.00;101182.66;5047868;28;20099;-74
2022/09/07 06:11:37;;;;;;;22.42;15.75;;;;;;;15.30;100.00;101176.47;5049161;28;20075;-74
2022/09/07 06:14:02;;;;;;;25.10;16.00;;;;;;;15.33;100.00;101182.47;5050942;28;20540;-74
2022/09/07 06:16:27;;;;;;;20.80;16.10;;;;;;;15.32;100.00;101187.78;5047698;28;20028;-74
2022/09/07 06:18:53;;;;;;;19.27;15.85;;;;;;;15.31;100.00;101176.44;5046310;28;20047;-74
2022/09/07 06:21:21;;;;;;;27.40;18.88;;;;;;;15.31;100.00;101180.84;5048931;28;20048;-74
2022/09/07 06:23:47;;;;;;;27.42;19.17;;;;;;;15.36;100.00;101184.97;5037496;28;20021;-74
2022/09/07 06:26:15;;;;;;;29.60;21.02;;;;;;;15.37;100.00;101186.72;5047993;28;20063;-74
2022/09/07 06:28:42;;;;;;;34.17;21.52;;;;;;;15.48;100.00;101194.19;5048564;28;20028;-74
2022/09/07 06:31:11;;;;;;;33.05;22.00;;;;;;;15.62;100.00;101201.53;5041732;28;20476;-74
2022/09/07 06:33:37;;;;;;;34.28;23.08;;;;;;;15.79;100.00;101203.53;5050060;28;20468;-74
2022/09/07 06:36:23;;;;;;;41.78;25.35;;;;;;;15.85;100.00;101203.28;5044904;28;20086;-74
2022/09/07 06:38:50;;;;;;;41.03;26.23;;;;;;;15.90;100.00;101199.56;5047262;28;20040;-74
2022/09/07 06:41:27;;;;;;;44.85;25.23;;;;;;;15.93;100.00;101214.38;5049756;28;20037;-74
2022/09/07 06:43:53;;;;;;;40.65;26.30;;;;;;;15.93;100.00;101195.97;5047814;28;20086;-74
2022/09/07 06:46:19;;;;;;;47.00;28.80;;;;;;;15.97;100.00;101200.19;5049633;28;20029;-74
2022/09/07 06:48:44;;;;;;;43.15;27.20;;;;;;;16.04;100.00;101201.63;5049608;28;20021;-74
2022/09/07 06:51:15;;;;;;;40.13;26.63;;;;;;;16.13;100.00;101197.78;5039932;28;20119;-74
2022/09/07 06:53:41;;;;;;;45.33;28.70;;;;;;;16.32;100.00;101211.03;5050907;28;20028;-73
2022/09/07 06:56:11;;;;;;;43.63;28.58;;;;;;;16.40;100.00;101208.94;5049335;28;20583;-74
2022/09/07 06:58:36;;;;;;;40.20;28.85;;;;;;;16.44;100.00;101210.50;5044208;28;20606;-73
2022/09/07 07:01:08;;;;;;;42.80;28.23;;;;;;;16.46;100.00;101205.19;5038326;28;20041;-74
2022/09/07 07:03:34;;;;;;;43.05;30.40;;;;;;;16.55;100.00;101213.56;5053211;28;20468;-76
2022/09/07 07:06:00;;;;;;;42.35;29.50;;;;;;;16.61;100.00;101196.63;5040593;28;20032;-77
2022/09/07 07:08:25;;;;;;;40.08;28.88;;;;;;;16.71;100.00;101204.97;5052413;28;20155;-76
2022/09/07 07:10:51;;;;;;;42.22;29.00;;;;;;;16.77;100.00;101210.03;5054740;28;20017;-77
2022/09/07 07:13:17;;;;;;;44.83;30.73;;;;;;;16.82;100.00;101214.19;5053291;28;20100;-76
2022/09/07 07:15:43;;;;;;;49.63;32.13;;;;;;;16.99;100.00;101215.22;5054834;28;20032;-76
2022/09/07 07:18:09;;;;;;;46.58;31.48;;;;;;;17.16;100.00;101217.94;5050484;28;20381;-77
2022/09/07 07:20:36;;;;;;;44.30;32.00;;;;;;;17.37;100.00;101216.13;5046205;28;20032;-77
2022/09/07 07:23:02;;;;;;;47.03;33.05;;;;;;;17.49;100.00;101218.22;5039819;28;20022;-76
2022/09/07 07:25:27;;;;;;;45.83;31.15;;;;;;;17.58;100.00;101213.41;5054222;28;20031;-77
2022/09/07 07:27:52;;;;;;;47.28;33.53;;;;;;;17.59;100.00;101218.59;5053696;28;20461;-76
2022/09/07 07:30:20;;;;;;;43.97;32.45;;;;;;;17.43;100.00;101220.25;5047272;28;20032;-76
2022/09/07 07:32:46;;;;;;;43.72;33.05;;;;;;;17.47;100.00;101221.84;5046381;28;20044;-76
2022/09/07 07:35:17;;;;;;;45.53;32.65;;;;;;;17.55;100.00;101220.53;5050572;28;20017;-77
2022/09/07 07:37:42;;;;;;;42.95;33.25;;;;;;;17.74;100.00;101230.22;5053528;28;20041;-77
2022/09/07 07:40:10;;;;;;;42.20;31.98;;;;;;;17.89;100.00;101223.41;5052051;28;20052;-76
2022/09/07 07:42:38;;;;;;;44.13;32.58;;;;;;;17.94;100.00;101229.31;5052149;28;20084;-77
2022/09/07 07:45:08;;;;;;;43.90;32.50;;;;;;;17.84;100.00;101231.53;5052228;28;20448;-78
2022/09/07 07:47:34;;;;;;;43.72;32.75;;;;;;;17.81;100.00;101234.31;5053257;28;20029;-77
2022/09/07 07:50:03;;;;;;;43.22;32.53;;;;;;;17.79;100.00;101236.19;5046835;28;20027;-77
2022/09/07 07:52:36;;;;;;;46.72;32.80;;;;;;;17.88;100.00;101241.00;5051189;28;20112;-77
2022/09/07 07:55:03;;;;;;;46.38;35.17;;;;;;;18.13;100.00;101237.19;5052656;28;20104;-76
2022/09/07 07:57:28;;;;;;;43.65;32.03;;;;;;;18.22;100.00;101226.19;5054003;28;20419;-76
2022/09/07 07:59:54;;;;;;;39.88;30.48;;;;;;;18.28;100.00;101239.09;5053904;28;20017;-77
2022/09/07 08:02:20;;;;;;;37.97;30.05;;;;;;;18.35;100.00;101243.13;5052388;28;20028;-77
2022/09/07 08:04:45;;;;;;;35.15;28.38;;;;;;;18.28;100.00;101247.00;5053898;28;20017;-77
2022/09/07 08:07:11;;;;;;;34.97;29.10;;;;;;;18.13;100.00;101250.38;5053180;28;20377;-77
2022/09/07 08:09:41;;;;;;;39.22;29.10;;;;;;;17.89;100.00;101241.88;5052445;28;20184;-77
2022/09/07 08:12:10;;;;;;;35.35;27.83;;;;;;;17.80;100.00;101251.06;5052644;28;20029;-76
2022/09/07 08:14:39;;;;;;;35.55;28.92;;;;;;;17.81;100.00;101247.50;5052513;28;20404;-77
2022/09/07 08:17:05;;;;;;;34.88;27.23;;;;;;;17.91;100.00;101248.78;5052650;28;20024;-77
2022/09/07 08:19:30;;;;;;;35.72;28.60;;;;;;;17.98;100.00;101247.56;5049424;28;20021;-77
2022/09/07 08:21:55;;;;;;;35.47;28.85;;;;;;;18.05;100.00;101247.25;5044476;28;20036;-73
2022/09/07 08:24:21;;;;;;;37.13;28.00;;;;;;;18.10;100.00;101255.81;5052291;28;20431;-73
2022/09/07 08:26:46;;;;;;;40.33;27.70;;;;;;;18.10;100.00;101247.91;5061466;28;20041;-74
2022/09/07 08:29:12;;;;;;;37.72;28.77;;;;;;;18.19;100.00;101253.59;5054697;28;20422;-73
2022/09/07 08:31:37;;;;;;;34.40;28.00;;;;;;;18.23;100.00;101246.38;5052203;28;20020;-74
2022/09/07 08:34:02;;;;;;;30.67;26.15;;;;;;;18.24;100.00;101251.56;5054771;28;20032;-74
2022/09/07 08:36:30;;;;;;;31.30;26.05;;;;;;;18.27;100.00;101252.34;5052787;28;20029;-74
2022/09/07 08:38:55;;;;;;;30.00;25.38;;;;;;;18.39;100.00;101257.88;5052321;28;20028;-73
2022/09/07 08:41:26;;;;;;;34.35;27.83;;;;;;;18.44;100.00;101260.28;5052575;28;20037;-75
2022/09/07 08:43:53;;;;;;;29.48;25.45;;;;;;;18.53;100.00;101261.63;5052337;28;20087;-74
2022/09/07 08:46:31;;;;;;;32.90;25.52;;;;;;;18.62;100.00;101269.94;5063383;28;20504;-73
2022/09/07 08:48:59;;;;;;;29.52;23.77;;;;;;;18.64;100.00;101264.59;5052515;28;20024;-74
2022/09/07 08:51:35;;;;;;;25.95;21.33;;;;;;;18.70;100.00;101264.25;5051706;28;20024;-74
2022/09/07 08:54:01;;;;;;;25.88;21.08;;;;;;;18.76;100.00;101257.84;5052684;28;20028;-74
2022/09/07 08:56:32;;;;;;;26.83;21.08;;;;;;;18.78;100.00;101267.41;5059810;28;20020;-74
2022/09/07 08:59:05;;;;;;;24.50;20.20;;;;;;;18.79;100.00;101268.25;5054190;28;20053;-73
2022/09/07 09:01:40;;;;;;;22.50;20.10;;;;;;;18.84;100.00;101256.53;5052387;28;20028;-74
2022/09/07 09:04:13;;;;;;;20.95;16.65;;;;;;;18.94;100.00;101263.03;5053034;28;20032;-74
2022/09/07 09:07:16;;;;;;;22.45;18.08;;;;;;;19.03;100.00;101269.66;5056391;28;20097;-73
2022/09/07 09:10:19;;;;;;;18.55;15.50;;;;;;;19.16;100.00;101262.78;5052337;28;20473;-74
2022/09/07 09:13:00;;;;;;;19.75;15.45;;;;;;;19.34;100.00;101265.38;5051735;28;20054;-74
2022/09/07 09:15:43;;;;;;;19.40;15.07;;;;;;;19.44;100.00;101263.09;5052321;28;20025;-74
2022/09/07 09:18:20;;;;;;;17.15;13.35;;;;;;;19.54;100.00;101266.94;5056026;28;20028;-74
2022/09/07 09:20:49;;;;;;;18.08;12.25;;;;;;;19.59;100.00;101263.13;5052061;28;20024;-74
2022/09/07 09:23:17;;;;;;;17.00;12.00;;;;;;;19.53;100.00;101258.16;5037755;28;20032;-74
2022/09/07 09:26:19;;;;;;;13.63;10.77;;;;;;;19.46;97.68;101267.38;5055516;28;20495;-74
2022/09/07 09:28:44;;;;;;;14.70;11.95;;;;;;;19.39;100.00;101260.69;5040117;28;20044;-74
2022/09/07 09:31:21;;;;;;;13.90;11.05;;;;;;;19.61;98.94;101263.03;5052093;28;20021;-74
2022/09/07 09:34:04;;;;;;;13.18;9.90;;;;;;;20.00;96.98;101267.09;5051602;28;20033;-74
2022/09/07 09:36:51;;;;;;;13.80;9.95;;;;;;;20.40;99.71;101259.50;5051704;28;20032;-74
2022/09/07 09:39:28;;;;;;;13.52;9.15;;;;;;;20.70;97.35;101257.78;5051709;28;20070;-74
2022/09/07 09:42:02;;;;;;;10.15;8.60;;;;;;;20.95;93.98;101253.63;5051116;28;20048;-75
2022/09/07 09:44:32;;;;;;;11.10;8.30;;;;;;;21.03;89.53;101256.69;5053520;28;20043;-74
2022/09/07 09:46:58;;;;;;;13.90;7.90;;;;;;;21.30;86.91;101253.28;5051337;28;20061;-74
2022/09/07 09:49:28;;;;;;;11.30;6.20;;;;;;;21.53;85.12;101255.38;5049996;28;20494;-75
2022/09/07 09:51:55;;;;;;;7.32;5.10;;;;;;;21.70;88.14;101254.31;5051346;28;20032;-75
2022/09/07 09:54:27;;;;;;;9.25;4.53;;;;;;;21.80;83.89;101260.75;5049361;28;20031;-74
2022/09/07 09:56:52;;;;;;;5.57;3.95;;;;;;;22.08;83.17;101254.50;5051573;28;20111;-74
2022/09/07 09:59:22;;;;;;;9.30;4.07;;;;;;;22.26;81.65;101249.81;5048669;28;20129;-75
2022/09/07 10:01:49;;;;;;;7.82;4.18;;;;;;;22.38;80.36;101256.13;5050870;28;20035;-74
2022/09/07 10:04:29;;;;;;;8.18;4.50;;;;;;;22.35;79.78;101256.31;5051255;28;20032;-74
2022/09/07 10:07:11;;;;;;;9.50;4.35;;;;;;;22.24;80.46;101243.78;5050348;28;20025;-74
2022/09/07 10:09:39;;;;;;;6.95;4.00;;;;;;;21.94;79.83;101250.09;5050693;28;20090;-74
2022/09/07 10:12:06;;;;;;;8.45;4.00;;;;;;;21.85;81.96;101252.50;5053568;28;20576;-74
2022/09/07 10:14:40;;;;;;;7.25;3.55;;;;;;;21.95;80.78;101248.28;5051613;28;20068;-73
2022/09/07 10:17:28;;;;;;;5.95;3.47;;;;;;;21.79;85.70;101245.78;5068545;28;20067;-74
2022/09/07 10:19:58;;;;;;;6.90;3.15;;;;;;;21.82;77.37;101237.63;5043096;28;20025;-75
2022/09/07 10:22:36;;;;;;;7.72;3.70;;;;;;;21.95;74.51;101235.03;5040211;28;20025;-74
2022/09/07 10:25:23;;;;;;;6.63;3.20;;;;;;;21.92;78.80;101237.88;5037028;28;20357;-74
2022/09/07 10:28:00;;;;;;;8.55;2.60;;;;;;;21.97;80.82;101235.75;5050649;28;20055;-74
2022/09/07 10:30:26;;;;;;;10.30;3.13;;;;;;;22.01;78.77;101233.75;5050840;28;20021;-74
2022/09/07 10:33:05;;;;;;;7.57;3.10;;;;;;;22.10;78.35;101241.97;5051378;28;20441;-75
2022/09/07 10:35:38;;;;;;;8.65;3.10;;;;;;;22.31;79.51;101239.75;5057668;28;20040;-75
2022/09/07 10:38:06;;;;;;;6.53;2.80;;;;;;;22.47;77.49;101233.41;5053297;28;20036;-74
2022/09/07 10:40:41;;;;;;;5.32;3.03;;;;;;;22.46;75.07;101231.69;5054772;28;20025;-75
2022/09/07 10:43:17;;;;;;;7.18;2.70;;;;;;;22.55;74.22;101233.75;5061102;28;20166;-75
2022/09/07 10:45:57;;;;;;;4.53;2.72;;;;;;;22.28;74.63;101231.13;5056172;28;20062;-75
2022/09/07 10:48:51;;;;;;;7.70;2.70;;;;;;;22.40;76.44;101227.66;5055577;28;20052;-74
2022/09/07 10:51:21;;;;;;;;;;;;;;;22.75;82.05;101224.41;5047577;28;20029;-75
2022/09/07 10:54:12;;;;;;;6.68;2.50;;;;;;;23.29;70.98;101221.56;5050132;28;20019;-75
2022/09/07 10:57:02;;;;;;;8.32;2.83;;;;;;;23.46;72.77;101213.22;5064497;28;20025;-74
2022/09/07 10:59:57;;;;;;;8.98;3.00;;;;;;;23.64;72.70;101211.03;5048462;28;20499;-75
2022/09/07 11:02:47;;;;;;;8.30;2.50;;;;;;;23.46;70.81;101215.88;5051831;28;20045;-75
2022/09/07 11:05:30;;;;;;;8.80;2.47;;;;;;;23.02;70.28;101227.00;5053215;28;20492;-75
2022/09/07 11:07:58;;;;;;;;;;;;;;;22.98;76.55;101226.34;5056385;28;20033;-74
2022/09/07 11:10:42;;;;;;;7.60;2.53;;;;;;;23.04;65.38;101222.44;5044939;28;19921;-75
2022/09/07 11:13:14;;;;;;;6.65;2.63;;;;;;;23.46;66.16;101207.91;5041898;28;20032;-75
2022/09/07 11:15:49;;;;;;;5.95;2.60;;;;;;;23.73;64.03;101207.72;5040107;28;20481;-75
2022/09/07 11:18:29;;;;;;;7.25;2.70;;;;;;;24.06;64.13;101204.38;5054160;28;20414;-74
2022/09/07 11:20:57;;;;;;;6.78;2.30;;;;;;;24.26;60.57;101199.38;5055218;28;20071;-75
2022/09/07 11:23:46;;;;;;;7.35;2.63;;;;;;;24.55;61.17;101199.88;5040104;28;20090;-74
2022/09/07 11:26:13;;;;;;;7.35;2.50;;;;;;;25.03;56.44;101199.69;5053348;28;20124;-75
2022/09/07 11:28:59;;;;;;;4.72;2.33;;;;;;;25.10;62.04;101208.91;5055390;28;20021;-74